createdAt,value
2023-04-21T00:00:55.136Z,7.22
2023-04-21T00:03:28.015Z,8.10
2023-04-21T00:05:58.826Z,7.32
2023-04-21T00:08:28.847Z,7.32
2023-04-21T00:10:58.233Z,7.75
2023-04-21T00:13:25.676Z,7.90
2023-04-21T00:15:55.253Z,8.27
2023-04-21T00:18:25.320Z,8.25
2023-04-21T00:20:55.279Z,7.75
2023-04-21T00:23:22.704Z,8.60
2023-04-21T00:25:50.091Z,8.55
2023-04-21T00:28:17.360Z,8.00
2023-04-21T00:30:47.183Z,8.35
2023-04-21T00:33:14.499Z,8.77
2023-04-21T00:35:41.742Z,8.85
2023-04-21T00:38:09.298Z,8.07
2023-04-21T00:40:36.540Z,8.38
2023-04-21T00:43:07.456Z,8.60
2023-04-21T00:45:37.380Z,8.50
2023-04-21T00:48:04.888Z,8.27
2023-04-21T00:50:33.169Z,8.60
2023-04-21T00:53:00.732Z,8.57
2023-04-21T00:55:29.040Z,8.40
2023-04-21T00:57:56.721Z,8.75
2023-04-21T01:00:24.483Z,9.60
2023-04-21T01:02:52.074Z,8.88
2023-04-21T01:05:19.500Z,9.00
2023-04-21T01:07:46.943Z,9.52
2023-04-21T01:10:14.507Z,8.73
2023-04-21T01:12:49.145Z,8.90
2023-04-21T01:15:17.964Z,9.02
2023-04-21T01:17:47.682Z,8.07
2023-04-21T01:20:18.395Z,8.15
2023-04-21T01:22:45.788Z,8.77
2023-04-21T01:25:17.584Z,8.88
2023-04-21T01:27:44.929Z,8.85
2023-04-21T01:30:12.323Z,8.45
2023-04-21T01:32:40.097Z,9.38
2023-04-21T01:35:07.784Z,8.65
2023-04-21T01:37:35.484Z,9.32
2023-04-21T01:40:09.146Z,9.65
2023-04-21T01:42:43.490Z,9.15
2023-04-21T01:45:11.595Z,8.75
2023-04-21T01:47:39.006Z,9.32
2023-04-21T01:50:07.538Z,8.73
2023-04-21T01:52:34.826Z,8.73
2023-04-21T01:55:04.948Z,8.43
2023-04-21T01:57:34.557Z,9.40
2023-04-21T02:00:02.391Z,8.93
2023-04-21T02:02:29.804Z,9.00
2023-04-21T02:04:59.481Z,9.00
2023-04-21T02:07:29.007Z,9.00
2023-04-21T02:09:56.533Z,8.88
2023-04-21T02:12:23.836Z,8.45
2023-04-21T02:14:51.113Z,8.63
2023-04-21T02:17:21.251Z,8.73
2023-04-21T02:19:48.607Z,8.50
2023-04-21T02:22:18.147Z,8.68
2023-04-21T02:24:45.466Z,8.88
2023-04-21T02:27:17.567Z,9.30
2023-04-21T02:29:44.813Z,8.93
2023-04-21T02:32:24.993Z,8.88
2023-04-21T02:34:53.326Z,8.98
2023-04-21T02:37:21.157Z,9.20
2023-04-21T02:39:48.537Z,8.50
2023-04-21T02:42:18.238Z,9.20
2023-04-21T02:44:50.233Z,9.45
2023-04-21T02:47:17.548Z,8.52
2023-04-21T02:49:45.075Z,8.57
2023-04-21T02:52:12.334Z,9.48
2023-04-21T02:54:39.672Z,9.38
2023-04-21T02:57:07.247Z,8.73
2023-04-21T02:59:36.905Z,9.05
2023-04-21T03:02:04.266Z,8.55
2023-04-21T03:04:34.261Z,8.32
2023-04-21T03:07:04.275Z,8.43
2023-04-21T03:09:31.642Z,8.75
2023-04-21T03:11:59.348Z,9.27
2023-04-21T03:14:26.914Z,8.23
2023-04-21T03:16:54.170Z,9.02
2023-04-21T03:19:21.786Z,8.30
2023-04-21T03:21:49.256Z,8.48
2023-04-21T03:24:19.663Z,8.52
2023-04-21T03:26:47.074Z,8.30
2023-04-21T03:29:14.637Z,8.50
2023-04-21T03:31:41.864Z,9.02
2023-04-21T03:34:09.203Z,8.32
2023-04-21T03:36:36.508Z,9.27
2023-04-21T03:39:13.158Z,8.50
2023-04-21T03:41:46.278Z,8.80
2023-04-21T03:44:13.829Z,8.65
2023-04-21T03:46:41.056Z,8.55
2023-04-21T03:49:08.414Z,8.32
2023-04-21T03:51:37.963Z,8.88
2023-04-21T03:54:05.388Z,8.40
2023-04-21T03:56:32.700Z,8.25
2023-04-21T03:58:59.997Z,8.52
2023-04-21T04:01:27.472Z,9.48
2023-04-21T04:03:55.293Z,8.88
2023-04-21T04:06:24.843Z,9.68
2023-04-21T04:08:52.166Z,9.00
2023-04-21T04:11:19.465Z,8.48
2023-04-21T04:13:49.078Z,8.65
2023-04-21T04:16:18.971Z,8.93
2023-04-21T04:18:46.288Z,8.80
2023-04-21T04:21:15.779Z,8.32
2023-04-21T04:23:44.376Z,7.53
2023-04-21T04:26:11.669Z,7.75
2023-04-21T04:28:38.917Z,8.07
2023-04-21T04:31:06.291Z,8.02
2023-04-21T04:33:36.201Z,7.72
2023-04-21T04:36:06.485Z,7.47
2023-04-21T04:38:35.588Z,7.32
2023-04-21T04:41:03.284Z,6.90
2023-04-21T04:43:33.574Z,6.78
2023-04-21T04:46:01.492Z,6.78
2023-04-21T04:48:31.465Z,6.70
2023-04-21T04:50:58.740Z,6.10
2023-04-21T04:53:28.494Z,6.63
2023-04-21T04:55:57.551Z,7.07
2023-04-21T04:58:24.937Z,6.68
2023-04-21T05:00:52.280Z,6.30
2023-04-21T05:03:19.736Z,5.75
2023-04-21T05:05:47.258Z,5.97
2023-04-21T05:08:17.833Z,6.35
2023-04-21T05:10:47.776Z,5.65
2023-04-21T05:13:17.667Z,6.85
2023-04-21T05:15:47.130Z,5.70
2023-04-21T05:18:14.462Z,5.53
2023-04-21T05:20:42.614Z,6.13
2023-04-21T05:23:12.069Z,6.10
2023-04-21T05:25:42.212Z,6.72
2023-04-21T05:28:09.600Z,6.50
2023-04-21T05:30:36.963Z,6.30
2023-04-21T05:33:04.346Z,6.35
2023-04-21T05:35:31.774Z,6.70
2023-04-21T05:38:01.560Z,7.07
2023-04-21T05:40:28.825Z,6.47
2023-04-21T05:42:56.049Z,8.23
2023-04-21T05:45:23.401Z,7.70
2023-04-21T05:47:51.147Z,7.38
2023-04-21T05:50:18.628Z,8.00
2023-04-21T05:52:48.376Z,8.15
2023-04-21T05:55:15.625Z,8.35
2023-04-21T05:57:42.939Z,8.38
2023-04-21T06:00:11.027Z,8.25
2023-04-21T06:02:38.558Z,7.97
2023-04-21T06:05:06.461Z,7.10
2023-04-21T06:07:37.129Z,7.95
2023-04-21T06:10:04.898Z,7.10
2023-04-21T06:12:32.209Z,8.30
2023-04-21T06:14:59.534Z,8.43
2023-04-21T06:17:29.306Z,8.65
2023-04-21T06:19:58.774Z,9.35
2023-04-21T06:22:27.296Z,8.18
2023-04-21T06:24:58.333Z,8.85
2023-04-21T06:27:25.974Z,8.93
2023-04-21T06:29:56.614Z,8.70
2023-04-21T06:32:26.147Z,8.43
2023-04-21T06:34:53.445Z,8.68
2023-04-21T06:37:20.682Z,8.85
2023-04-21T06:39:47.946Z,8.50
2023-04-21T06:42:15.268Z,7.72
2023-04-21T06:44:42.600Z,8.20
2023-04-21T06:47:09.927Z,8.65
2023-04-21T06:49:40.269Z,8.45
2023-04-21T06:52:07.510Z,7.22
2023-04-21T06:54:39.283Z,7.28
2023-04-21T06:57:06.748Z,7.90
2023-04-21T06:59:36.347Z,7.45
2023-04-21T07:02:03.688Z,7.78
2023-04-21T07:04:32.369Z,7.03
2023-04-21T07:07:02.421Z,7.13
2023-04-21T07:09:34.052Z,6.80
2023-04-21T07:12:03.027Z,6.93
2023-04-21T07:14:32.667Z,6.55
2023-04-21T07:17:02.254Z,7.18
2023-04-21T07:19:29.669Z,6.45
2023-04-21T07:21:57.122Z,6.65
2023-04-21T07:24:24.382Z,7.32
2023-04-21T07:26:51.621Z,7.05
2023-04-21T07:29:19.047Z,7.10
2023-04-21T07:31:48.658Z,6.25
2023-04-21T07:34:18.311Z,6.07
2023-04-21T07:36:45.642Z,6.65
2023-04-21T07:39:13.020Z,6.70
2023-04-21T07:41:40.432Z,6.32
2023-04-21T07:44:07.658Z,5.95
2023-04-21T07:46:35.303Z,5.90
2023-04-21T07:49:05.199Z,5.97
2023-04-21T07:51:32.734Z,5.72
2023-04-21T07:54:00.012Z,5.45
2023-04-21T07:56:27.424Z,5.95
2023-04-21T07:58:54.969Z,5.65
2023-04-21T08:01:23.733Z,5.85
2023-04-21T08:03:53.140Z,5.60
2023-04-21T08:06:21.342Z,5.20
2023-04-21T08:08:48.797Z,5.55
2023-04-21T08:11:16.171Z,5.18
2023-04-21T08:13:43.441Z,5.22
2023-04-21T08:16:10.799Z,4.93
2023-04-21T08:18:38.165Z,4.93
2023-04-21T08:21:05.589Z,5.38
2023-04-21T08:23:34.940Z,7.75
2023-04-21T08:26:05.580Z,5.05
2023-04-21T08:28:32.835Z,4.87
2023-04-21T08:31:02.096Z,4.60
2023-04-21T08:33:29.489Z,4.32
2023-04-21T08:36:05.536Z,4.50
2023-04-21T08:38:47.283Z,3.80
2023-04-21T08:41:23.862Z,3.88
2023-04-21T08:43:53.628Z,4.35
2023-04-21T08:46:23.824Z,4.05
2023-04-21T08:48:52.243Z,4.25
2023-04-21T08:51:28.141Z,4.32
2023-04-21T08:53:55.826Z,4.45
2023-04-21T08:56:25.945Z,3.78
2023-04-21T08:58:54.030Z,3.75
2023-04-21T09:01:21.644Z,3.67
2023-04-21T09:03:51.471Z,3.80
2023-04-21T09:06:21.668Z,3.80
2023-04-21T09:08:56.464Z,3.92
2023-04-21T09:11:23.960Z,4.10
2023-04-21T09:13:51.286Z,4.15
2023-04-21T09:16:23.075Z,3.67
2023-04-21T09:18:51.661Z,3.85
2023-04-21T09:21:20.459Z,3.90
2023-04-21T09:23:51.623Z,4.20
2023-04-21T09:26:22.665Z,3.80
2023-04-21T09:28:51.342Z,3.88
2023-04-21T09:31:29.312Z,3.90
2023-04-21T09:34:00.160Z,3.80
2023-04-21T09:36:32.165Z,4.05
2023-04-21T09:41:35.059Z,3.78
2023-04-21T09:44:05.210Z,3.92
2023-04-21T09:46:37.088Z,3.80
2023-04-21T09:49:06.198Z,3.80
2023-04-21T09:54:28.327Z,3.80
2023-04-21T09:59:39.788Z,3.50
2023-04-21T10:02:09.821Z,3.60
2023-04-21T10:04:38.668Z,3.47
2023-04-21T10:07:07.135Z,3.38
2023-04-21T10:09:45.402Z,3.85
2023-04-21T10:12:13.969Z,3.55
2023-04-21T10:14:41.497Z,3.58
2023-04-21T10:17:10.613Z,3.58
2023-04-21T10:19:48.462Z,3.60
2023-04-21T10:22:27.872Z,3.10
2023-04-21T10:24:57.017Z,2.95
2023-04-21T10:27:43.262Z,3.42
2023-04-21T10:30:24.181Z,2.90
2023-04-21T10:33:03.490Z,3.67
2023-04-21T10:36:01.023Z,3.38
2023-04-21T10:38:56.615Z,3.30
2023-04-21T10:41:28.262Z,3.05
2023-04-21T10:43:59.581Z,3.53
2023-04-21T10:46:36.601Z,3.35
2023-04-21T10:49:12.829Z,3.20
2023-04-21T10:52:07.253Z,3.20
2023-04-21T10:54:46.436Z,3.10
2023-04-21T10:57:18.859Z,3.00
2023-04-21T10:59:47.571Z,2.90
2023-04-21T11:02:18.757Z,2.90
2023-04-21T11:04:50.839Z,2.90
2023-04-21T11:07:23.641Z,3.40
2023-04-21T11:10:04.967Z,2.95
2023-04-21T11:12:34.934Z,2.88
2023-04-21T11:15:07.492Z,2.80
2023-04-21T11:17:36.239Z,2.95
2023-04-21T11:20:04.717Z,2.63
2023-04-21T11:22:38.422Z,2.90
2023-04-21T11:25:06.300Z,2.78
2023-04-21T11:27:33.679Z,2.88
2023-04-21T11:30:04.176Z,2.90
2023-04-21T11:32:31.552Z,3.07
2023-04-21T11:34:58.987Z,2.60
2023-04-21T11:37:28.813Z,2.75
2023-04-21T11:40:01.803Z,2.70
2023-04-21T11:42:29.200Z,2.60
2023-04-21T11:44:57.530Z,2.85
2023-04-21T11:47:26.801Z,2.83
2023-04-21T11:49:56.258Z,2.15
2023-04-21T11:52:41.305Z,2.25
2023-04-21T11:55:16.275Z,2.20
2023-04-21T11:57:46.425Z,2.55
2023-04-21T12:00:16.765Z,2.53
2023-04-21T12:02:44.494Z,2.33
2023-04-21T12:05:15.369Z,2.45
2023-04-21T12:07:44.738Z,2.22
2023-04-21T12:10:17.955Z,2.30
2023-04-21T12:12:48.233Z,2.50
2023-04-21T12:15:23.182Z,2.13
2023-04-21T12:17:55.472Z,2.17
2023-04-21T12:20:24.581Z,2.30
2023-04-21T12:22:54.597Z,2.20
2023-04-21T12:25:22.051Z,2.30
2023-04-21T12:27:49.853Z,2.72
2023-04-21T12:30:17.349Z,2.30
2023-04-21T12:32:44.820Z,2.67
2023-04-21T12:35:12.113Z,2.70
2023-04-21T12:37:41.822Z,2.30
2023-04-21T12:40:11.892Z,2.63
2023-04-21T12:42:39.203Z,4.68
2023-04-21T12:45:07.214Z,18.40
2023-04-21T12:47:36.785Z,5.90
2023-04-21T12:50:06.884Z,2.30
2023-04-21T12:52:34.243Z,2.42
2023-04-21T12:55:04.681Z,2.10
2023-04-21T12:57:32.024Z,2.13
2023-04-21T13:00:02.512Z,2.38
2023-04-21T13:02:37.243Z,2.00
2023-04-21T13:05:07.446Z,1.80
2023-04-21T13:07:34.789Z,1.88
2023-04-21T13:10:06.637Z,2.83
2023-04-21T13:12:34.304Z,1.80
2023-04-21T13:15:01.648Z,1.80
2023-04-21T13:17:31.580Z,2.10
2023-04-21T13:19:58.856Z,1.80
2023-04-21T13:22:28.693Z,1.60
2023-04-21T13:24:58.146Z,1.67
2023-04-21T13:27:25.581Z,1.95
2023-04-21T13:29:55.616Z,1.77
2023-04-21T13:32:23.123Z,1.60
2023-04-21T13:34:53.891Z,1.52
2023-04-21T13:37:21.309Z,1.83
2023-04-21T13:39:51.087Z,1.88
2023-04-21T13:42:20.728Z,1.77
2023-04-21T13:44:50.259Z,1.52
2023-04-21T13:47:17.662Z,1.70
2023-04-21T13:49:45.915Z,1.88
2023-04-21T13:52:13.173Z,1.45
2023-04-21T13:54:42.718Z,1.70
2023-04-21T13:57:10.017Z,2.00
2023-04-21T13:59:39.909Z,1.52
2023-04-21T14:02:09.964Z,1.63
2023-04-21T14:04:37.841Z,1.58
2023-04-21T14:07:08.132Z,1.90
2023-04-21T14:09:37.854Z,1.60
2023-04-21T14:12:07.793Z,1.70
2023-04-21T14:14:38.666Z,1.90
2023-04-21T14:17:09.016Z,1.63
2023-04-21T14:19:36.861Z,1.90
2023-04-21T14:22:04.373Z,1.60
2023-04-21T14:24:32.371Z,1.70
2023-04-21T14:26:59.788Z,1.48
2023-04-21T14:29:29.959Z,1.70
2023-04-21T14:31:59.604Z,1.75
2023-04-21T14:34:27.066Z,1.80
2023-04-21T14:36:57.239Z,1.63
2023-04-21T14:39:24.583Z,1.80
2023-04-21T14:41:51.993Z,1.70
2023-04-21T14:44:19.396Z,2.00
2023-04-21T14:46:57.075Z,1.83
2023-04-21T14:49:29.169Z,1.60
2023-04-21T14:51:58.955Z,1.80
2023-04-21T14:54:28.475Z,2.08
2023-04-21T14:57:14.876Z,2.00
2023-04-21T14:59:47.030Z,1.75
2023-04-21T15:02:14.675Z,1.90
2023-04-21T15:04:44.739Z,1.50
2023-04-21T15:07:12.572Z,1.50
2023-04-21T15:09:39.924Z,1.73
2023-04-21T15:12:07.609Z,1.63
2023-04-21T15:14:34.994Z,1.73
2023-04-21T15:17:02.285Z,1.80
2023-04-21T15:19:32.120Z,1.60
2023-04-21T15:21:59.582Z,1.80
2023-04-21T15:24:26.856Z,1.73
2023-04-21T15:26:57.254Z,1.67
2023-04-21T15:29:24.598Z,2.03
2023-04-21T15:31:51.962Z,1.42
2023-04-21T15:34:19.262Z,1.70
2023-04-21T15:36:48.760Z,1.90
2023-04-21T15:39:16.200Z,1.80
2023-04-21T15:41:43.512Z,1.70
2023-04-21T15:44:11.108Z,1.77
2023-04-21T15:46:38.395Z,1.90
2023-04-21T15:49:05.816Z,1.77
2023-04-21T15:51:37.196Z,1.50
2023-04-21T15:56:31.812Z,2.17
2023-04-21T15:59:03.806Z,1.50
2023-04-21T16:01:36.779Z,1.98
2023-04-21T16:04:05.581Z,1.88
2023-04-21T16:06:33.284Z,1.85
2023-04-21T16:09:03.456Z,1.88
2023-04-21T16:11:30.761Z,2.10
2023-04-21T16:14:00.438Z,2.10
2023-04-21T16:16:30.162Z,1.73
2023-04-21T16:18:57.476Z,2.28
2023-04-21T16:21:25.518Z,2.55
2023-04-21T16:23:55.240Z,2.30
2023-04-21T16:26:22.995Z,2.30
2023-04-21T16:28:54.163Z,2.20
2023-04-21T16:31:21.758Z,2.50
2023-04-21T16:33:52.691Z,2.65
2023-04-21T16:36:21.315Z,2.53
2023-04-21T16:38:48.706Z,2.75
2023-04-21T16:41:21.309Z,2.63
2023-04-21T16:43:48.775Z,2.35
2023-04-21T16:46:16.374Z,2.55
2023-04-21T16:48:43.873Z,2.83
2023-04-21T16:51:11.349Z,2.60
2023-04-21T16:53:42.075Z,3.13
2023-04-21T16:56:09.837Z,2.78
2023-04-21T16:58:39.632Z,2.38
2023-04-21T17:01:07.646Z,2.40
2023-04-21T17:03:35.406Z,2.90
2023-04-21T17:06:04.939Z,2.80
2023-04-21T17:08:34.480Z,2.75
2023-04-21T17:11:03.983Z,2.65
2023-04-21T17:13:35.467Z,2.72
2023-04-21T17:18:30.570Z,2.58
2023-04-21T17:20:57.885Z,2.53
2023-04-21T17:23:25.114Z,2.70
2023-04-21T17:25:52.388Z,2.90
2023-04-21T17:28:19.650Z,2.75
2023-04-21T17:30:46.893Z,3.00
2023-04-21T17:33:17.174Z,2.67
2023-04-21T17:35:59.943Z,2.53
2023-04-21T17:38:32.354Z,3.20
2023-04-21T17:40:59.941Z,3.00
2023-04-21T17:43:27.340Z,2.80
2023-04-21T17:45:54.629Z,2.60
2023-04-21T17:48:21.953Z,2.80
2023-04-21T17:50:49.396Z,3.13
2023-04-21T17:53:17.424Z,2.70
2023-04-21T17:55:44.942Z,3.03
2023-04-21T17:58:12.592Z,2.83
2023-04-21T18:00:40.088Z,2.70
2023-04-21T18:03:07.607Z,3.13
2023-04-21T18:05:35.629Z,2.63
2023-04-21T18:08:03.071Z,2.70
2023-04-21T18:10:30.560Z,2.60
2023-04-21T18:12:58.306Z,3.25
2023-04-21T18:15:28.033Z,2.80
2023-04-21T18:18:02.200Z,2.35
2023-04-21T18:20:32.155Z,2.40
2023-04-21T18:23:01.777Z,2.40
2023-04-21T18:25:41.408Z,3.42
2023-04-21T18:28:11.127Z,2.72
2023-04-21T18:30:42.245Z,2.35
2023-04-21T18:33:12.646Z,2.58
2023-04-21T18:35:41.269Z,2.50
2023-04-21T18:38:11.879Z,2.50
2023-04-21T18:40:40.849Z,2.88
2023-04-21T18:43:09.853Z,2.70
2023-04-21T18:45:38.797Z,2.92
2023-04-21T18:48:06.206Z,2.78
2023-04-21T18:50:35.255Z,2.63
2023-04-21T18:53:04.741Z,2.40
2023-04-21T18:55:33.494Z,2.85
2023-04-21T18:58:03.460Z,3.45
2023-04-21T19:00:32.195Z,2.70
2023-04-21T19:03:02.770Z,2.88
2023-04-21T19:05:31.739Z,2.40
2023-04-21T19:07:59.170Z,3.03
2023-04-21T19:10:29.807Z,2.92
2023-04-21T19:12:59.335Z,3.27
2023-04-21T19:15:26.654Z,2.78
2023-04-21T19:17:56.390Z,2.95
2023-04-21T19:20:23.716Z,2.90
2023-04-21T19:22:53.808Z,2.90
2023-04-21T19:25:23.479Z,2.70
2023-04-21T19:27:51.619Z,2.97
2023-04-21T19:30:19.114Z,3.70
2023-04-21T19:32:48.773Z,3.38
2023-04-21T19:35:20.919Z,2.88
2023-04-21T19:37:50.675Z,2.78
2023-04-21T19:40:18.844Z,2.60
2023-04-21T19:42:46.194Z,2.83
2023-04-21T19:45:13.599Z,2.45
2023-04-21T19:47:40.906Z,2.67
2023-04-21T19:50:09.041Z,2.58
2023-04-21T19:52:36.318Z,2.78
2023-04-21T19:55:04.753Z,2.55
2023-04-21T19:57:32.022Z,2.20
2023-04-21T20:00:01.701Z,2.88
2023-04-21T20:02:29.132Z,2.95
2023-04-21T20:04:56.674Z,2.60
2023-04-21T20:07:24.925Z,3.00
2023-04-21T20:09:54.562Z,2.60
2023-04-21T20:12:24.619Z,2.70
2023-04-21T20:14:53.715Z,2.67
2023-04-21T20:17:21.096Z,3.03
2023-04-21T20:19:48.993Z,2.88
2023-04-21T20:22:16.367Z,2.78
2023-04-21T20:24:44.022Z,2.80
2023-04-21T20:27:11.420Z,3.33
2023-04-21T20:29:39.053Z,2.83
2023-04-21T20:32:06.773Z,2.97
2023-04-21T20:34:36.489Z,2.55
2023-04-21T20:37:05.262Z,2.80
2023-04-21T20:39:32.747Z,2.85
2023-04-21T20:42:12.563Z,2.70
2023-04-21T20:44:42.507Z,2.85
2023-04-21T20:47:11.615Z,2.92
2023-04-21T20:49:42.747Z,2.92
2023-04-21T20:52:10.501Z,3.10
2023-04-21T20:54:38.295Z,3.22
2023-04-21T20:57:10.662Z,3.47
2023-04-21T20:59:40.784Z,3.05
2023-04-21T21:02:08.527Z,3.05
2023-04-21T21:04:37.997Z,3.55
2023-04-21T21:07:07.732Z,3.53
2023-04-21T21:09:35.523Z,3.03
2023-04-21T21:12:02.912Z,3.10
2023-04-21T21:14:30.161Z,3.10
2023-04-21T21:16:57.643Z,3.55
2023-04-21T21:19:25.063Z,3.13
2023-04-21T21:21:52.320Z,3.97
2023-04-21T21:24:22.050Z,3.88
2023-04-21T21:26:49.330Z,3.63
2023-04-21T21:29:21.587Z,3.60
2023-04-21T21:31:51.090Z,3.60
2023-04-21T21:34:18.430Z,3.63
2023-04-21T21:36:45.882Z,3.40
2023-04-21T21:39:13.189Z,3.65
2023-04-21T21:41:40.397Z,3.45
2023-04-21T21:44:07.929Z,3.22
2023-04-21T21:46:37.711Z,3.70
2023-04-21T21:49:07.810Z,4.20
2023-04-21T21:51:35.112Z,3.85
2023-04-21T21:54:06.501Z,4.32
2023-04-21T21:56:36.709Z,4.57
2023-04-21T21:59:08.968Z,7.68
2023-04-21T22:01:36.294Z,6.28
2023-04-21T22:04:03.794Z,5.00
2023-04-21T22:06:32.634Z,4.43
2023-04-21T22:09:04.997Z,4.28
2023-04-21T22:11:32.524Z,4.47
2023-04-21T22:14:10.993Z,4.45
2023-04-21T22:16:46.216Z,4.45
2023-04-21T22:19:13.559Z,4.13
2023-04-21T22:21:40.903Z,4.40
2023-04-21T22:24:08.359Z,3.90
2023-04-21T22:26:36.376Z,4.05
2023-04-21T22:29:06.225Z,4.25
2023-04-21T22:31:36.747Z,3.88
2023-04-21T22:34:06.855Z,4.32
2023-04-21T22:36:34.226Z,3.90
2023-04-21T22:39:06.298Z,3.70
2023-04-21T22:41:33.510Z,3.20
2023-04-21T22:44:00.850Z,3.80
2023-04-21T22:46:32.044Z,3.50
2023-04-21T22:49:03.255Z,3.72
2023-04-21T22:51:32.228Z,3.50
2023-04-21T22:54:02.989Z,3.97
2023-04-21T22:56:31.218Z,3.67
2023-04-21T22:58:58.563Z,3.92
2023-04-21T23:01:25.881Z,3.42
2023-04-21T23:03:57.850Z,3.40
2023-04-21T23:06:28.378Z,3.70
2023-04-21T23:08:55.683Z,4.05
2023-04-21T23:11:22.940Z,3.60
2023-04-21T23:13:53.340Z,3.75
2023-04-21T23:16:26.221Z,3.70
2023-04-21T23:18:55.665Z,3.80
2023-04-21T23:21:22.974Z,3.97
2023-04-21T23:23:52.873Z,4.03
2023-04-21T23:26:20.298Z,3.90
2023-04-21T23:28:47.601Z,4.28
2023-04-21T23:31:14.915Z,4.32
2023-04-21T23:33:42.175Z,3.78
2023-04-21T23:36:09.423Z,4.43
2023-04-21T23:38:38.859Z,4.40
2023-04-21T23:41:06.282Z,4.25
2023-04-21T23:43:34.627Z,4.15
2023-04-21T23:46:02.026Z,4.30
2023-04-21T23:48:29.301Z,4.00
2023-04-21T23:50:56.677Z,4.30
2023-04-21T23:53:23.959Z,4.63
2023-04-21T23:55:51.414Z,5.03
2023-04-21T23:58:18.775Z,4.22
